sensor_id;sensor_type;location;lat;lon;timestamp;temperature;humidity
67759;SHT31;54562;47.620;18.786;2022-09-03T00:01:17;14.63;73.99
67759;SHT31;54562;47.620;18.786;2022-09-03T00:04:31;14.63;74.20
67759;SHT31;54562;47.620;18.786;2022-09-03T00:07:53;14.62;74.30
67759;SHT31;54562;47.620;18.786;2022-09-03T00:11:11;14.62;74.56
67759;SHT31;54562;47.620;18.786;2022-09-03T00:14:26;14.64;74.63
67759;SHT31;54562;47.620;18.786;2022-09-03T00:17:45;14.65;74.64
67759;SHT31;54562;47.620;18.786;2022-09-03T00:21:00;14.65;74.47
67759;SHT31;54562;47.620;18.786;2022-09-03T00:24:16;14.62;74.47
67759;SHT31;54562;47.620;18.786;2022-09-03T00:27:29;14.59;74.47
67759;SHT31;54562;47.620;18.786;2022-09-03T00:30:44;14.58;74.45
67759;SHT31;54562;47.620;18.786;2022-09-03T00:34:00;14.59;74.61
67759;SHT31;54562;47.620;18.786;2022-09-03T00:37:18;14.59;74.60
67759;SHT31;54562;47.620;18.786;2022-09-03T00:40:35;14.59;74.53
67759;SHT31;54562;47.620;18.786;2022-09-03T00:44:05;14.60;74.75
67759;SHT31;54562;47.620;18.786;2022-09-03T00:47:37;14.63;74.82
67759;SHT31;54562;47.620;18.786;2022-09-03T00:51:04;14.64;74.68
67759;SHT31;54562;47.620;18.786;2022-09-03T00:54:34;14.58;74.41
67759;SHT31;54562;47.620;18.786;2022-09-03T00:57:57;14.52;74.61
67759;SHT31;54562;47.620;18.786;2022-09-03T01:01:34;14.46;74.77
67759;SHT31;54562;47.620;18.786;2022-09-03T01:04:53;14.40;74.70
67759;SHT31;54562;47.620;18.786;2022-09-03T01:08:15;14.37;74.97
67759;SHT31;54562;47.620;18.786;2022-09-03T01:11:49;14.33;75.14
67759;SHT31;54562;47.620;18.786;2022-09-03T01:15:09;14.27;75.12
67759;SHT31;54562;47.620;18.786;2022-09-03T01:18:26;14.23;75.35
67759;SHT31;54562;47.620;18.786;2022-09-03T01:21:47;14.22;75.36
67759;SHT31;54562;47.620;18.786;2022-09-03T01:25:25;14.23;75.55
67759;SHT31;54562;47.620;18.786;2022-09-03T01:28:54;14.23;75.63
67759;SHT31;54562;47.620;18.786;2022-09-03T01:32:18;14.23;75.82
67759;SHT31;54562;47.620;18.786;2022-09-03T01:35:37;14.24;76.07
67759;SHT31;54562;47.620;18.786;2022-09-03T01:38:58;14.23;76.08
67759;SHT31;54562;47.620;18.786;2022-09-03T01:42:10;14.23;75.97
67759;SHT31;54562;47.620;18.786;2022-09-03T01:45:34;14.21;75.81
67759;SHT31;54562;47.620;18.786;2022-09-03T01:48:55;14.20;76.00
67759;SHT31;54562;47.620;18.786;2022-09-03T01:52:21;14.18;75.99
67759;SHT31;54562;47.620;18.786;2022-09-03T01:55:51;14.15;75.85
67759;SHT31;54562;47.620;18.786;2022-09-03T01:59:17;14.09;75.74
67759;SHT31;54562;47.620;18.786;2022-09-03T02:02:32;14.06;75.92
67759;SHT31;54562;47.620;18.786;2022-09-03T02:05:41;14.02;75.77
67759;SHT31;54562;47.620;18.786;2022-09-03T02:08:49;13.98;75.88
67759;SHT31;54562;47.620;18.786;2022-09-03T02:11:58;13.98;76.13
67759;SHT31;54562;47.620;18.786;2022-09-03T02:15:18;13.96;76.16
67759;SHT31;54562;47.620;18.786;2022-09-03T02:18:29;13.90;76.05
67759;SHT31;54562;47.620;18.786;2022-09-03T02:21:45;13.88;75.96
67759;SHT31;54562;47.620;18.786;2022-09-03T02:24:58;13.85;76.10
67759;SHT31;54562;47.620;18.786;2022-09-03T02:28:06;13.80;76.16
67759;SHT31;54562;47.620;18.786;2022-09-03T02:31:19;13.77;76.16
67759;SHT31;54562;47.620;18.786;2022-09-03T02:34:27;13.74;76.22
67759;SHT31;54562;47.620;18.786;2022-09-03T02:37:36;13.71;76.46
67759;SHT31;54562;47.620;18.786;2022-09-03T02:40:44;13.69;76.69
67759;SHT31;54562;47.620;18.786;2022-09-03T02:43:53;13.70;76.69
67759;SHT31;54562;47.620;18.786;2022-09-03T02:47:07;13.72;76.71
67759;SHT31;54562;47.620;18.786;2022-09-03T02:50:15;13.72;76.72
67759;SHT31;54562;47.620;18.786;2022-09-03T02:53:23;13.68;76.80
67759;SHT31;54562;47.620;18.786;2022-09-03T02:56:31;13.67;76.95
67759;SHT31;54562;47.620;18.786;2022-09-03T02:59:40;13.67;76.95
67759;SHT31;54562;47.620;18.786;2022-09-03T03:02:48;13.70;76.88
67759;SHT31;54562;47.620;18.786;2022-09-03T03:05:59;13.72;77.03
67759;SHT31;54562;47.620;18.786;2022-09-03T03:09:09;13.70;76.78
67759;SHT31;54562;47.620;18.786;2022-09-03T03:12:17;13.68;76.86
67759;SHT31;54562;47.620;18.786;2022-09-03T03:15:26;13.66;76.96
67759;SHT31;54562;47.620;18.786;2022-09-03T03:18:34;13.62;77.21
67759;SHT31;54562;47.620;18.786;2022-09-03T03:21:43;13.60;77.26
67759;SHT31;54562;47.620;18.786;2022-09-03T03:24:51;13.58;77.38
67759;SHT31;54562;47.620;18.786;2022-09-03T03:28:06;13.58;77.44
67759;SHT31;54562;47.620;18.786;2022-09-03T03:31:20;13.57;77.44
67759;SHT31;54562;47.620;18.786;2022-09-03T03:34:30;13.52;77.12
67759;SHT31;54562;47.620;18.786;2022-09-03T03:37:38;13.49;77.26
67759;SHT31;54562;47.620;18.786;2022-09-03T03:40:50;13.46;77.43
67759;SHT31;54562;47.620;18.786;2022-09-03T03:44:01;13.44;77.57
67759;SHT31;54562;47.620;18.786;2022-09-03T03:47:14;13.44;77.81
67759;SHT31;54562;47.620;18.786;2022-09-03T03:50:21;13.45;77.86
67759;SHT31;54562;47.620;18.786;2022-09-03T03:53:35;13.45;77.78
67759;SHT31;54562;47.620;18.786;2022-09-03T03:56:43;13.46;77.76
67759;SHT31;54562;47.620;18.786;2022-09-03T03:59:57;13.47;77.72
67759;SHT31;54562;47.620;18.786;2022-09-03T04:03:08;13.48;77.82
67759;SHT31;54562;47.620;18.786;2022-09-03T04:06:17;13.51;78.13
67759;SHT31;54562;47.620;18.786;2022-09-03T04:09:25;13.52;77.98
67759;SHT31;54562;47.620;18.786;2022-09-03T04:12:33;13.53;78.02
67759;SHT31;54562;47.620;18.786;2022-09-03T04:15:41;13.56;78.05
67759;SHT31;54562;47.620;18.786;2022-09-03T04:18:50;13.58;78.21
67759;SHT31;54562;47.620;18.786;2022-09-03T04:21:59;13.60;78.07
67759;SHT31;54562;47.620;18.786;2022-09-03T04:25:08;13.59;77.97
67759;SHT31;54562;47.620;18.786;2022-09-03T04:28:16;13.58;78.17
67759;SHT31;54562;47.620;18.786;2022-09-03T04:31:27;13.58;78.38
67759;SHT31;54562;47.620;18.786;2022-09-03T04:34:35;13.60;78.31
67759;SHT31;54562;47.620;18.786;2022-09-03T04:37:43;13.62;78.26
67759;SHT31;54562;47.620;18.786;2022-09-03T04:40:52;13.64;78.57
67759;SHT31;54562;47.620;18.786;2022-09-03T04:44:01;13.68;78.41
67759;SHT31;54562;47.620;18.786;2022-09-03T04:47:09;13.73;78.52
67759;SHT31;54562;47.620;18.786;2022-09-03T04:50:18;13.75;78.88
67759;SHT31;54562;47.620;18.786;2022-09-03T04:53:27;13.79;79.03
67759;SHT31;54562;47.620;18.786;2022-09-03T04:56:37;13.83;79.22
67759;SHT31;54562;47.620;18.786;2022-09-03T04:59:45;13.91;78.78
67759;SHT31;54562;47.620;18.786;2022-09-03T05:02:51;14.00;78.64
67759;SHT31;54562;47.620;18.786;2022-09-03T05:06:03;14.16;78.57
67759;SHT31;54562;47.620;18.786;2022-09-03T05:09:12;14.35;78.46
67759;SHT31;54562;47.620;18.786;2022-09-03T05:12:20;14.54;78.49
67759;SHT31;54562;47.620;18.786;2022-09-03T05:15:28;14.71;78.29
67759;SHT31;54562;47.620;18.786;2022-09-03T05:18:37;14.89;78.31
67759;SHT31;54562;47.620;18.786;2022-09-03T05:21:45;15.05;78.07
67759;SHT31;54562;47.620;18.786;2022-09-03T05:24:53;15.20;77.61
67759;SHT31;54562;47.620;18.786;2022-09-03T05:28:01;15.34;77.50
67759;SHT31;54562;47.620;18.786;2022-09-03T05:31:10;15.47;77.26
67759;SHT31;54562;47.620;18.786;2022-09-03T05:34:21;15.60;76.95
67759;SHT31;54562;47.620;18.786;2022-09-03T05:37:29;15.72;76.43
67759;SHT31;54562;47.620;18.786;2022-09-03T05:40:38;15.83;76.25
67759;SHT31;54562;47.620;18.786;2022-09-03T05:43:47;15.94;76.22
67759;SHT31;54562;47.620;18.786;2022-09-03T05:46:59;16.06;75.97
67759;SHT31;54562;47.620;18.786;2022-09-03T05:50:07;16.17;75.72
67759;SHT31;54562;47.620;18.786;2022-09-03T05:53:16;16.27;75.19
67759;SHT31;54562;47.620;18.786;2022-09-03T05:56:24;16.37;74.87
67759;SHT31;54562;47.620;18.786;2022-09-03T05:59:35;16.45;74.40
67759;SHT31;54562;47.620;18.786;2022-09-03T06:02:43;16.55;74.18
67759;SHT31;54562;47.620;18.786;2022-09-03T06:05:58;16.66;74.42
67759;SHT31;54562;47.620;18.786;2022-09-03T06:09:07;16.78;74.11
67759;SHT31;54562;47.620;18.786;2022-09-03T06:12:18;16.91;73.93
67759;SHT31;54562;47.620;18.786;2022-09-03T06:15:26;17.02;73.93
67759;SHT31;54562;47.620;18.786;2022-09-03T06:18:35;17.15;73.79
67759;SHT31;54562;47.620;18.786;2022-09-03T06:21:43;17.23;72.93
67759;SHT31;54562;47.620;18.786;2022-09-03T06:24:51;17.31;72.77
67759;SHT31;54562;47.620;18.786;2022-09-03T06:27:59;17.38;72.30
67759;SHT31;54562;47.620;18.786;2022-09-03T06:31:11;17.47;72.42
67759;SHT31;54562;47.620;18.786;2022-09-03T06:34:22;17.55;71.88
67759;SHT31;54562;47.620;18.786;2022-09-03T06:37:30;17.63;72.00
67759;SHT31;54562;47.620;18.786;2022-09-03T06:40:50;17.73;71.67
67759;SHT31;54562;47.620;18.786;2022-09-03T06:44:00;17.79;71.21
67759;SHT31;54562;47.620;18.786;2022-09-03T06:47:14;17.87;71.07
67759;SHT31;54562;47.620;18.786;2022-09-03T06:50:22;17.95;71.07
67759;SHT31;54562;47.620;18.786;2022-09-03T06:53:37;18.04;70.92
67759;SHT31;54562;47.620;18.786;2022-09-03T06:56:48;18.12;70.63
67759;SHT31;54562;47.620;18.786;2022-09-03T06:59:56;18.23;70.26
67759;SHT31;54562;47.620;18.786;2022-09-03T07:03:06;18.31;70.01
67759;SHT31;54562;47.620;18.786;2022-09-03T07:06:14;18.40;69.58
67759;SHT31;54562;47.620;18.786;2022-09-03T07:09:23;18.51;69.37
67759;SHT31;54562;47.620;18.786;2022-09-03T07:12:31;18.59;69.11
67759;SHT31;54562;47.620;18.786;2022-09-03T07:15:41;18.70;68.38
67759;SHT31;54562;47.620;18.786;2022-09-03T07:18:49;18.76;67.85
67759;SHT31;54562;47.620;18.786;2022-09-03T07:21:58;18.85;67.77
67759;SHT31;54562;47.620;18.786;2022-09-03T07:25:06;18.95;67.93
67759;SHT31;54562;47.620;18.786;2022-09-03T07:28:16;19.09;67.27
67759;SHT31;54562;47.620;18.786;2022-09-03T07:31:24;19.17;66.71
67759;SHT31;54562;47.620;18.786;2022-09-03T07:34:35;19.26;66.09
67759;SHT31;54562;47.620;18.786;2022-09-03T07:37:43;19.36;66.12
67759;SHT31;54562;47.620;18.786;2022-09-03T07:40:57;19.42;65.87
67759;SHT31;54562;47.620;18.786;2022-09-03T07:44:07;19.49;65.54
67759;SHT31;54562;47.620;18.786;2022-09-03T07:47:17;19.55;65.32
67759;SHT31;54562;47.620;18.786;2022-09-03T07:50:29;19.65;65.14
67759;SHT31;54562;47.620;18.786;2022-09-03T07:53:42;19.75;64.49
67759;SHT31;54562;47.620;18.786;2022-09-03T07:56:50;19.84;64.19
67759;SHT31;54562;47.620;18.786;2022-09-03T08:00:00;19.90;63.77
67759;SHT31;54562;47.620;18.786;2022-09-03T08:03:10;19.99;63.61
67759;SHT31;54562;47.620;18.786;2022-09-03T08:06:19;20.11;63.47
67759;SHT31;54562;47.620;18.786;2022-09-03T08:09:29;20.24;63.11
67759;SHT31;54562;47.620;18.786;2022-09-03T08:12:37;20.33;63.04
67759;SHT31;54562;47.620;18.786;2022-09-03T08:15:54;20.43;62.97
67759;SHT31;54562;47.620;18.786;2022-09-03T08:19:04;20.52;62.44
67759;SHT31;54562;47.620;18.786;2022-09-03T08:22:13;20.55;61.83
67759;SHT31;54562;47.620;18.786;2022-09-03T08:25:22;20.61;62.01
67759;SHT31;54562;47.620;18.786;2022-09-03T08:28:31;20.69;62.17
67759;SHT31;54562;47.620;18.786;2022-09-03T08:31:40;20.77;61.62
67759;SHT31;54562;47.620;18.786;2022-09-03T08:34:48;20.84;61.48
67759;SHT31;54562;47.620;18.786;2022-09-03T08:37:56;20.88;60.22
67759;SHT31;54562;47.620;18.786;2022-09-03T08:41:11;20.88;60.33
67759;SHT31;54562;47.620;18.786;2022-09-03T08:44:25;20.98;60.06
67759;SHT31;54562;47.620;18.786;2022-09-03T08:47:41;21.09;59.04
67759;SHT31;54562;47.620;18.786;2022-09-03T08:50:55;21.23;60.08
67759;SHT31;54562;47.620;18.786;2022-09-03T08:54:12;21.35;59.78
67759;SHT31;54562;47.620;18.786;2022-09-03T08:57:22;21.44;59.53
67759;SHT31;54562;47.620;18.786;2022-09-03T09:00:38;21.56;60.37
67759;SHT31;54562;47.620;18.786;2022-09-03T09:03:59;21.65;59.96
67759;SHT31;54562;47.620;18.786;2022-09-03T09:07:25;21.74;59.34
67759;SHT31;54562;47.620;18.786;2022-09-03T09:10:42;21.84;59.03
67759;SHT31;54562;47.620;18.786;2022-09-03T09:14:00;21.94;58.51
67759;SHT31;54562;47.620;18.786;2022-09-03T09:17:21;22.08;58.15
67759;SHT31;54562;47.620;18.786;2022-09-03T09:20:48;22.21;57.91
67759;SHT31;54562;47.620;18.786;2022-09-03T09:24:03;22.29;57.87
67759;SHT31;54562;47.620;18.786;2022-09-03T09:27:24;22.38;57.88
67759;SHT31;54562;47.620;18.786;2022-09-03T09:30:33;22.54;57.68
67759;SHT31;54562;47.620;18.786;2022-09-03T09:33:42;22.69;57.05
67759;SHT31;54562;47.620;18.786;2022-09-03T09:36:51;22.87;57.09
67759;SHT31;54562;47.620;18.786;2022-09-03T09:40:01;23.03;56.19
67759;SHT31;54562;47.620;18.786;2022-09-03T09:43:10;23.09;55.94
67759;SHT31;54562;47.620;18.786;2022-09-03T09:46:24;23.16;55.06
67759;SHT31;54562;47.620;18.786;2022-09-03T09:49:42;23.21;55.00
67759;SHT31;54562;47.620;18.786;2022-09-03T09:53:01;23.41;55.15
67759;SHT31;54562;47.620;18.786;2022-09-03T09:56:21;23.58;54.41
67759;SHT31;54562;47.620;18.786;2022-09-03T09:59:31;23.71;52.79
67759;SHT31;54562;47.620;18.786;2022-09-03T10:02:46;23.80;52.15
67759;SHT31;54562;47.620;18.786;2022-09-03T10:06:02;23.92;52.76
67759;SHT31;54562;47.620;18.786;2022-09-03T10:09:30;24.07;51.71
67759;SHT31;54562;47.620;18.786;2022-09-03T10:12:39;23.97;51.75
67759;SHT31;54562;47.620;18.786;2022-09-03T10:15:54;24.06;52.22
67759;SHT31;54562;47.620;18.786;2022-09-03T10:19:10;24.22;51.44
67759;SHT31;54562;47.620;18.786;2022-09-03T10:22:25;24.17;50.60
67759;SHT31;54562;47.620;18.786;2022-09-03T10:25:41;24.24;51.23
67759;SHT31;54562;47.620;18.786;2022-09-03T10:29:10;24.34;49.96
67759;SHT31;54562;47.620;18.786;2022-09-03T10:32:28;24.42;50.14
67759;SHT31;54562;47.620;18.786;2022-09-03T10:35:54;24.52;49.08
67759;SHT31;54562;47.620;18.786;2022-09-03T10:39:18;24.65;50.33
67759;SHT31;54562;47.620;18.786;2022-09-03T10:42:45;24.88;49.84
67759;SHT31;54562;47.620;18.786;2022-09-03T10:46:13;24.98;49.22
67759;SHT31;54562;47.620;18.786;2022-09-03T10:49:39;24.85;49.50
67759;SHT31;54562;47.620;18.786;2022-09-03T10:53:03;25.10;49.25
67759;SHT31;54562;47.620;18.786;2022-09-03T10:56:26;25.21;47.97
67759;SHT31;54562;47.620;18.786;2022-09-03T10:59:59;25.25;48.13
67759;SHT31;54562;47.620;18.786;2022-09-03T11:07:07;25.73;47.08
67759;SHT31;54562;47.620;18.786;2022-09-03T11:10:21;25.99;47.22
67759;SHT31;54562;47.620;18.786;2022-09-03T11:13:35;26.15;45.73
67759;SHT31;54562;47.620;18.786;2022-09-03T11:16:51;25.67;45.03
67759;SHT31;54562;47.620;18.786;2022-09-03T11:20:10;25.34;46.08
67759;SHT31;54562;47.620;18.786;2022-09-03T11:23:23;25.56;46.79
67759;SHT31;54562;47.620;18.786;2022-09-03T11:26:39;25.99;45.95
67759;SHT31;54562;47.620;18.786;2022-09-03T11:29:51;26.30;44.71
67759;SHT31;54562;47.620;18.786;2022-09-03T11:33:07;26.64;43.38
67759;SHT31;54562;47.620;18.786;2022-09-03T11:36:25;26.94;42.42
67759;SHT31;54562;47.620;18.786;2022-09-03T11:39:38;26.32;42.22
67759;SHT31;54562;47.620;18.786;2022-09-03T11:42:47;25.59;43.17
67759;SHT31;54562;47.620;18.786;2022-09-03T11:46:02;25.32;44.42
67759;SHT31;54562;47.620;18.786;2022-09-03T11:49:24;25.86;44.69
67759;SHT31;54562;47.620;18.786;2022-09-03T11:52:36;26.33;44.68
67759;SHT31;54562;47.620;18.786;2022-09-03T11:55:51;26.78;43.48
67759;SHT31;54562;47.620;18.786;2022-09-03T11:59:17;27.01;42.39
67759;SHT31;54562;47.620;18.786;2022-09-03T12:02:29;27.01;42.81
67759;SHT31;54562;47.620;18.786;2022-09-03T12:06:01;27.22;43.22
67759;SHT31;54562;47.620;18.786;2022-09-03T12:13:50;27.98;41.22
67759;SHT31;54562;47.620;18.786;2022-09-03T12:17:30;27.83;39.62
67759;SHT31;54562;47.620;18.786;2022-09-03T12:25:22;27.48;40.37
67759;SHT31;54562;47.620;18.786;2022-09-03T12:29:02;27.36;40.26
67759;SHT31;54562;47.620;18.786;2022-09-03T12:32:50;27.07;40.15
67759;SHT31;54562;47.620;18.786;2022-09-03T12:36:16;27.02;40.22
67759;SHT31;54562;47.620;18.786;2022-09-03T12:39:50;27.03;40.24
67759;SHT31;54562;47.620;18.786;2022-09-03T12:43:17;27.20;40.07
67759;SHT31;54562;47.620;18.786;2022-09-03T12:46:58;27.50;40.93
67759;SHT31;54562;47.620;18.786;2022-09-03T12:51:01;27.82;38.88
67759;SHT31;54562;47.620;18.786;2022-09-03T12:54:33;27.72;38.56
67759;SHT31;54562;47.620;18.786;2022-09-03T12:57:53;27.81;39.29
67759;SHT31;54562;47.620;18.786;2022-09-03T13:08:13;28.33;38.50
67759;SHT31;54562;47.620;18.786;2022-09-03T13:11:33;28.23;38.67
67759;SHT31;54562;47.620;18.786;2022-09-03T13:15:16;27.73;38.78
67759;SHT31;54562;47.620;18.786;2022-09-03T13:18:43;27.50;38.78
67759;SHT31;54562;47.620;18.786;2022-09-03T13:22:18;27.36;38.43
67759;SHT31;54562;47.620;18.786;2022-09-03T13:25:48;27.36;38.97
67759;SHT31;54562;47.620;18.786;2022-09-03T13:29:17;27.54;38.74
67759;SHT31;54562;47.620;18.786;2022-09-03T13:32:43;27.55;39.01
67759;SHT31;54562;47.620;18.786;2022-09-03T13:35:59;27.54;38.77
67759;SHT31;54562;47.620;18.786;2022-09-03T13:39:23;27.53;38.22
67759;SHT31;54562;47.620;18.786;2022-09-03T13:42:40;27.17;38.09
67759;SHT31;54562;47.620;18.786;2022-09-03T13:45:56;26.58;39.01
67759;SHT31;54562;47.620;18.786;2022-09-03T13:49:09;26.24;39.12
67759;SHT31;54562;47.620;18.786;2022-09-03T13:52:55;26.29;38.88
67759;SHT31;54562;47.620;18.786;2022-09-03T13:56:06;26.51;39.63
67759;SHT31;54562;47.620;18.786;2022-09-03T13:59:33;26.73;38.58
67759;SHT31;54562;47.620;18.786;2022-09-03T14:02:52;26.69;38.47
67759;SHT31;54562;47.620;18.786;2022-09-03T14:06:17;26.71;37.74
67759;SHT31;54562;47.620;18.786;2022-09-03T14:09:40;26.81;37.25
67759;SHT31;54562;47.620;18.786;2022-09-03T14:13:03;26.95;37.66
67759;SHT31;54562;47.620;18.786;2022-09-03T14:16:24;27.21;37.78
67759;SHT31;54562;47.620;18.786;2022-09-03T14:19:45;27.48;37.94
67759;SHT31;54562;47.620;18.786;2022-09-03T14:23:01;27.65;37.44
67759;SHT31;54562;47.620;18.786;2022-09-03T14:26:15;27.67;36.89
67759;SHT31;54562;47.620;18.786;2022-09-03T14:29:48;27.63;36.49
67759;SHT31;54562;47.620;18.786;2022-09-03T14:33:02;27.61;36.21
67759;SHT31;54562;47.620;18.786;2022-09-03T14:36:21;27.55;36.39
67759;SHT31;54562;47.620;18.786;2022-09-03T14:39:38;27.59;36.88
67759;SHT31;54562;47.620;18.786;2022-09-03T14:43:02;27.67;36.83
67759;SHT31;54562;47.620;18.786;2022-09-03T14:46:32;27.60;36.71
67759;SHT31;54562;47.620;18.786;2022-09-03T14:49:54;27.47;36.29
67759;SHT31;54562;47.620;18.786;2022-09-03T14:53:17;27.35;36.13
67759;SHT31;54562;47.620;18.786;2022-09-03T14:57:08;27.20;36.58
67759;SHT31;54562;47.620;18.786;2022-09-03T15:00:48;27.16;37.25
67759;SHT31;54562;47.620;18.786;2022-09-03T15:04:13;26.85;38.05
67759;SHT31;54562;47.620;18.786;2022-09-03T15:07:54;26.56;38.24
67759;SHT31;54562;47.620;18.786;2022-09-03T15:11:12;26.39;38.29
67759;SHT31;54562;47.620;18.786;2022-09-03T15:14:26;26.26;37.22
67759;SHT31;54562;47.620;18.786;2022-09-03T15:17:46;26.01;37.17
67759;SHT31;54562;47.620;18.786;2022-09-03T15:21:20;25.72;37.38
67759;SHT31;54562;47.620;18.786;2022-09-03T15:24:45;25.58;37.66
67759;SHT31;54562;47.620;18.786;2022-09-03T15:28:03;25.45;38.19
67759;SHT31;54562;47.620;18.786;2022-09-03T15:31:15;25.31;39.12
67759;SHT31;54562;47.620;18.786;2022-09-03T15:34:37;25.21;39.53
67759;SHT31;54562;47.620;18.786;2022-09-03T15:37:51;25.12;39.61
67759;SHT31;54562;47.620;18.786;2022-09-03T15:41:10;25.02;39.35
67759;SHT31;54562;47.620;18.786;2022-09-03T15:44:41;24.88;39.58
67759;SHT31;54562;47.620;18.786;2022-09-03T15:47:54;24.81;40.13
67759;SHT31;54562;47.620;18.786;2022-09-03T15:51:15;24.70;40.22
67759;SHT31;54562;47.620;18.786;2022-09-03T15:54:31;24.57;40.10
67759;SHT31;54562;47.620;18.786;2022-09-03T15:57:46;24.43;40.22
67759;SHT31;54562;47.620;18.786;2022-09-03T16:01:12;24.29;40.13
67759;SHT31;54562;47.620;18.786;2022-09-03T16:04:39;24.15;40.78
67759;SHT31;54562;47.620;18.786;2022-09-03T16:08:08;24.02;41.28
67759;SHT31;54562;47.620;18.786;2022-09-03T16:11:27;23.91;41.53
67759;SHT31;54562;47.620;18.786;2022-09-03T16:14:43;23.82;41.73
67759;SHT31;54562;47.620;18.786;2022-09-03T16:17:59;23.73;42.10
67759;SHT31;54562;47.620;18.786;2022-09-03T16:21:12;23.64;42.67
67759;SHT31;54562;47.620;18.786;2022-09-03T16:24:30;23.56;42.97
67759;SHT31;54562;47.620;18.786;2022-09-03T16:27:51;23.46;43.46
67759;SHT31;54562;47.620;18.786;2022-09-03T16:31:17;23.35;43.54
67759;SHT31;54562;47.620;18.786;2022-09-03T16:34:39;23.27;43.78
67759;SHT31;54562;47.620;18.786;2022-09-03T16:38:10;23.18;43.78
67759;SHT31;54562;47.620;18.786;2022-09-03T16:41:39;23.08;44.18
67759;SHT31;54562;47.620;18.786;2022-09-03T16:45:04;22.99;44.38
67759;SHT31;54562;47.620;18.786;2022-09-03T16:48:25;22.89;44.74
67759;SHT31;54562;47.620;18.786;2022-09-03T16:51:41;22.75;45.39
67759;SHT31;54562;47.620;18.786;2022-09-03T16:55:01;22.62;45.91
67759;SHT31;54562;47.620;18.786;2022-09-03T16:58:21;22.47;47.67
67759;SHT31;54562;47.620;18.786;2022-09-03T17:01:41;22.33;48.59
67759;SHT31;54562;47.620;18.786;2022-09-03T17:09:35;21.99;50.08
67759;SHT31;54562;47.620;18.786;2022-09-03T17:13:02;21.85;50.48
67759;SHT31;54562;47.620;18.786;2022-09-03T17:16:33;21.71;50.21
67759;SHT31;54562;47.620;18.786;2022-09-03T17:19:55;21.58;50.28
67759;SHT31;54562;47.620;18.786;2022-09-03T17:23:13;21.46;49.74
67759;SHT31;54562;47.620;18.786;2022-09-03T17:26:49;21.31;50.33
67759;SHT31;54562;47.620;18.786;2022-09-03T17:30:15;21.20;51.10
67759;SHT31;54562;47.620;18.786;2022-09-03T17:33:55;21.08;51.15
67759;SHT31;54562;47.620;18.786;2022-09-03T17:37:14;20.94;51.13
67759;SHT31;54562;47.620;18.786;2022-09-03T17:40:35;20.83;51.31
67759;SHT31;54562;47.620;18.786;2022-09-03T17:43:51;20.72;51.35
67759;SHT31;54562;47.620;18.786;2022-09-03T17:47:11;20.63;51.77
67759;SHT31;54562;47.620;18.786;2022-09-03T17:50:43;20.56;51.64
67759;SHT31;54562;47.620;18.786;2022-09-03T17:53:59;20.47;51.59
67759;SHT31;54562;47.620;18.786;2022-09-03T17:57:16;20.40;51.78
67759;SHT31;54562;47.620;18.786;2022-09-03T18:00:28;20.33;52.02
67759;SHT31;54562;47.620;18.786;2022-09-03T18:03:43;20.28;52.29
67759;SHT31;54562;47.620;18.786;2022-09-03T18:06:55;20.23;52.46
67759;SHT31;54562;47.620;18.786;2022-09-03T18:10:18;20.20;52.71
67759;SHT31;54562;47.620;18.786;2022-09-03T18:13:38;20.15;52.91
67759;SHT31;54562;47.620;18.786;2022-09-03T18:16:54;20.11;52.92
67759;SHT31;54562;47.620;18.786;2022-09-03T18:20:11;20.08;52.83
67759;SHT31;54562;47.620;18.786;2022-09-03T18:23:37;20.08;52.93
67759;SHT31;54562;47.620;18.786;2022-09-03T18:27:13;20.09;53.21
67759;SHT31;54562;47.620;18.786;2022-09-03T18:30:42;20.06;53.51
67759;SHT31;54562;47.620;18.786;2022-09-03T18:34:06;20.01;53.72
67759;SHT31;54562;47.620;18.786;2022-09-03T18:37:30;19.96;53.85
67759;SHT31;54562;47.620;18.786;2022-09-03T18:40:55;19.92;54.08
67759;SHT31;54562;47.620;18.786;2022-09-03T18:44:41;19.83;54.20
67759;SHT31;54562;47.620;18.786;2022-09-03T18:48:26;19.76;54.33
67759;SHT31;54562;47.620;18.786;2022-09-03T18:52:03;19.71;54.53
67759;SHT31;54562;47.620;18.786;2022-09-03T18:55:41;19.67;54.68
67759;SHT31;54562;47.620;18.786;2022-09-03T18:59:31;19.63;54.92
67759;SHT31;54562;47.620;18.786;2022-09-03T19:03:18;19.58;55.48
67759;SHT31;54562;47.620;18.786;2022-09-03T19:07:01;19.52;55.55
67759;SHT31;54562;47.620;18.786;2022-09-03T19:10:36;19.46;56.21
67759;SHT31;54562;47.620;18.786;2022-09-03T19:14:11;19.38;55.70
67759;SHT31;54562;47.620;18.786;2022-09-03T19:17:59;19.30;55.84
67759;SHT31;54562;47.620;18.786;2022-09-03T19:21:48;19.21;56.39
67759;SHT31;54562;47.620;18.786;2022-09-03T19:25:16;19.15;56.46
67759;SHT31;54562;47.620;18.786;2022-09-03T19:28:40;19.09;56.66
67759;SHT31;54562;47.620;18.786;2022-09-03T19:32:13;19.00;56.78
67759;SHT31;54562;47.620;18.786;2022-09-03T19:35:45;18.94;56.85
67759;SHT31;54562;47.620;18.786;2022-09-03T19:39:25;18.92;57.18
67759;SHT31;54562;47.620;18.786;2022-09-03T19:43:13;18.87;57.22
67759;SHT31;54562;47.620;18.786;2022-09-03T19:46:51;18.83;57.42
67759;SHT31;54562;47.620;18.786;2022-09-03T19:50:20;18.80;57.56
67759;SHT31;54562;47.620;18.786;2022-09-03T19:53:49;18.77;57.70
67759;SHT31;54562;47.620;18.786;2022-09-03T19:57:14;18.76;58.14
67759;SHT31;54562;47.620;18.786;2022-09-03T20:00:41;18.73;58.14
67759;SHT31;54562;47.620;18.786;2022-09-03T20:04:05;18.71;58.08
67759;SHT31;54562;47.620;18.786;2022-09-03T20:07:35;18.68;58.30
67759;SHT31;54562;47.620;18.786;2022-09-03T20:11:00;18.63;58.51
67759;SHT31;54562;47.620;18.786;2022-09-03T20:14:09;18.57;58.42
67759;SHT31;54562;47.620;18.786;2022-09-03T20:17:21;18.52;58.31
67759;SHT31;54562;47.620;18.786;2022-09-03T20:20:40;18.47;58.37
67759;SHT31;54562;47.620;18.786;2022-09-03T20:23:59;18.44;58.60
67759;SHT31;54562;47.620;18.786;2022-09-03T20:27:28;18.41;58.78
67759;SHT31;54562;47.620;18.786;2022-09-03T20:30:49;18.40;58.72
67759;SHT31;54562;47.620;18.786;2022-09-03T20:34:06;18.39;58.86
67759;SHT31;54562;47.620;18.786;2022-09-03T20:37:27;18.35;58.82
67759;SHT31;54562;47.620;18.786;2022-09-03T20:40:44;18.32;58.84
67759;SHT31;54562;47.620;18.786;2022-09-03T20:44:09;18.28;59.10
67759;SHT31;54562;47.620;18.786;2022-09-03T20:47:44;18.23;59.27
67759;SHT31;54562;47.620;18.786;2022-09-03T20:51:03;18.20;59.48
67759;SHT31;54562;47.620;18.786;2022-09-03T20:54:18;18.17;59.37
67759;SHT31;54562;47.620;18.786;2022-09-03T20:57:36;18.14;59.33